x

9411340 - Santa Barbara, Ca (ntbc1) Weather Station

11:30 - Fri 28th Apr 2017 All times are PDT. -7 hours from GMT.

  • Wind
    7mph, 30mph gusts
  • Air Temp 70°f
  • Sea Pressure 1011.3mb
  • 9411340 - Santa Barbara, Ca
  • 9411340 - Santa Barbara, Ca

More Historic Weather Station data

Upgrade to MSW Pro to gain access to the past 30 days of data for over 8000 Wavebouys and Weather Stations around the globe.

Join Pro

Comparision Forecast

View Surf forecast
   
ven. 04/28 11:30 7 30 mph 1011.3mb 70f
11:24 18 29 mph 1010.9mb 71f
11:18 15 34 mph 1011.1mb 71f
11:12 8 17 mph 1011.3mb 71f
11:06 11 22 mph 1011.3mb 71f
11:00 14 23 mph 1011.6mb 71f
10:36 14 28 mph 1012.2mb 73f
10:30 10 17 mph 1012.3mb 72f
10:24 14 17 mph 1012.3mb 72f
10:18 9 21 mph 1012.2mb 73f
10:12 9 15 mph 1012.2mb 71f
10:06 9 22 mph 1012mb 72f
10:00 16 25 mph 1011.8mb 72f
9:36 14 21 mph 1011.5mb 73f
9:30 14 20 mph 1011.4mb 73f
9:24 14 16 mph 1011.3mb 72f
9:18 11 21 mph 1011.1mb 73f
9:12 13 20 mph 1010.9mb 72f
9:06 14 16 mph 1010.8mb 71f
9:00 11 15 mph 1010.7mb 71f
8:36 9 14 mph 1010.4mb 73f
8:30 11 20 mph 1010.2mb 74f
8:24 10 17 mph 1010mb 73f
8:18 11 17 mph 1009.9mb 74f
8:12 6 9 mph 1009.8mb 73f
8:06 2 3 mph 1009.7mb 73f
8:00 2 5 mph 1009.6mb 73f
7:36 7 13 mph 1009.1mb 74f
7:30 7 14 mph 1009.1mb 74f
7:24 7 11 mph 1008.9mb 75f
7:18 7 14 mph 1008.7mb 75f
7:12 8 11 mph 1008.5mb 75f
7:06 9 14 mph 1008.5mb 76f
7:00 8 14 mph 1008.4mb 77f
6:36 11 23 mph 1008mb 79f
6:30 8 16 mph 1008mb 77f
6:24 8 16 mph 1008mb 80f
6:18 8 17 mph 1007.9mb 79f
6:12 7 21 mph 1008mb 79f
6:06 11 22 mph 1007.9mb 78f
6:00 10 16 mph 1007.9mb 76f
5:36 9 14 mph 1008.1mb 77f
5:30 8 14 mph 1008mb 78f
5:24 9 20 mph 1007.9mb 77f
5:18 10 18 mph 1007.9mb 77f
5:12 13 32 mph 1007.5mb 80f
5:06 15 25 mph 1007.7mb 80f
5:00 11 23 mph 1007.7mb 81f
4:36 13 28 mph 1007.5mb 81f
4:30 17 26 mph 1007.5mb 80f
4:24 11 21 mph 1007.5mb 81f
4:18 21 33 mph 1007.5mb 80f
4:12 14 24 mph 1007.6mb 77f
4:06 5 9 mph 1007.7mb 76f
4:00 6 15 mph 1007.7mb 69f
3:36 14 20 mph 1008.2mb 62f
3:30 18 21 mph 1008.3mb 60f
3:24 14 17 mph 1008.3mb 60f
3:18 17 22 mph 1008.5mb 60f
3:12 18 21 mph 1008.5mb 61f
3:06 17 21 mph 1008.5mb 59f
3:00 16 18 mph 1008.7mb 60f
2:36 14 15 mph 1008.9mb 60f
2:30 11 15 mph 1009mb 63f
2:24 13 15 mph 1009.2mb 63f
2:18 13 15 mph 1009.2mb 64f
2:12 14 16 mph 1009.3mb 62f
2:06 13 14 mph 1009.3mb 62f
2:00 11 14 mph 1009.4mb 63f
1:36 16 18 mph 1009.5mb 60f
1:30 16 18 mph 1009.7mb 60f
1:24 14 15 mph 1009.7mb 62f
1:18 14 16 mph 1009.8mb 65f
1:12 14 17 mph 1009.8mb 62f
1:06 13 14 mph 1009.9mb 60f
1:00 13 15 mph 1010.1mb 61f
12:36 8 10 mph 1010.3mb 58f
12:30 9 13 mph 1010.4mb 57f
12:24 11 14 mph 1010.5mb 57f
12:18 10 13 mph 1010.6mb 57f
12:12 9 14 mph 1010.6mb 57f
12:06 11 13 mph 1010.7mb 56f
12:00 9 10 mph 1010.7mb 57f
11:36 9 13 mph 1011mb 57f
11:30 11 14 mph 1011.1mb 56f
11:24 14 16 mph 1011.2mb 57f
11:18 13 16 mph 1011.2mb 59f
11:12 11 15 mph 1011.3mb 59f
11:06 14 15 mph 1011.3mb 58f
11:00 13 15 mph 1011.3mb 59f
10:36 13 15 mph 1011.2mb 59f
10:30 11 15 mph 1011.1mb 61f
10:24 11 15 mph 1011mb 62f
10:18 11 13 mph 1010.9mb 62f
10:12 11
mph
1010.9mb 63f
10:06 10 13 mph 1010.9mb 63f
10:00 10 11 mph 1011mb 62f
9:36 11 14 mph 1010.8mb 62f
9:30 9 10 mph 1010.9mb 62f
9:24 10 13 mph 1010.9mb 60f
9:18 11 13 mph 1010.9mb 62f
9:12 9 13 mph 1010.9mb 63f
9:06 8 9 mph 1010.9mb 65f
9:00 5 7 mph 1010.9mb 69f
8:36 6 9 mph 1010.9mb 67f
8:30 7 8 mph 1010.9mb 64f
8:24 2 3 mph 1010.9mb 63f
8:18 3 6 mph 1010.9mb 61f
8:12 3 5 mph 1010.9mb 63f
8:06 2 6 mph 1010.9mb 63f
8:00 1 7 mph 1010.9mb 61f
7:36 3 6 mph 1010.6mb 61f
7:30 2 5 mph 1010.5mb 61f
7:24  -  3 mph 1010.5mb 62f
7:18  -  3 mph 1010.3mb 62f
7:12 2 6 mph 1010.3mb 60f
7:06 2 6 mph 1010.1mb 62f
7:00 1 3 mph 1010mb 61f
6:36 5 6 mph 1009.6mb 59f
6:30 2 5 mph 1009.5mb 60f
6:24 3 5 mph 1009.4mb 59f
6:18 1 3 mph 1009.4mb 58f
6:12 2 3 mph 1009.3mb 59f
6:06  -  1 mph 1009.4mb 59f
6:00 2 3 mph 1009.2mb 59f
5:36 1 5 mph 1008.9mb 60f
5:30 5 9 mph 1008.9mb 60f
5:24 5 7 mph 1008.9mb 60f
5:18 1 11 mph 1008.8mb 60f
5:12 6 9 mph 1008.7mb 60f
5:06 2 9 mph 1008.7mb 60f
5:00 7 11 mph 1008.7mb 60f
4:30 9 14 mph 1008.4mb 61f
4:24 7 11 mph 1008.5mb 61f
4:18 9 15 mph 1008.3mb 61f
4:12 10 16 mph 1008.3mb 61f
4:06 9 14 mph 1008.3mb 61f
4:00 10 15 mph 1008.3mb 60f
3:36 10 15 mph 1008.2mb 60f
3:30 11 17 mph 1008.3mb 61f
3:24 14 20 mph 1008.2mb 61f
3:18 11 16 mph 1008.3mb 61f
3:12 2 9 mph 1008.3mb 63f
3:06 8 17 mph 1008mb 62f
3:00 6 11 mph 1008.1mb 62f
2:36 8 14 mph 1008.1mb 66f
2:30 7 14 mph 1008.1mb 66f
2:24 9 15 mph 1008.1mb 67f
2:18 10 16 mph 1008.2mb 67f
2:12 7 14 mph 1008.1mb 67f
2:06 7 11 mph 1008.2mb 67f
2:00 8 15 mph 1008.3mb 67f
1:36 9 16 mph 1008.4mb 68f
1:30 8 14 mph 1008.5mb 68f
1:24 9 15 mph 1008.5mb 68f
1:18 11 20 mph 1008.5mb 69f
1:12 10 17 mph 1008.6mb 69f
1:06 9 16 mph 1008.7mb 68f
1:00 9 15 mph 1008.7mb 68f
12:36 8 16 mph 1008.8mb 67f
12:30 9 13 mph 1008.8mb 66f
12:24 7 15 mph - 66f
12:18 7 14 mph 1008.9mb 66f
12:12 7 14 mph 1008.9mb 66f
12:06 6 14 mph 1009mb 67f
12:00 8 14 mph 1009.2mb 67f
jeu. 04/27 11:36 8 11 mph 1009.2mb 66f
11:30 7 11 mph 1009.2mb 68f
11:24 7 13 mph 1009.1mb 67f
11:18 9 14 mph 1009.2mb 67f
11:12 9 15 mph 1009.2mb 68f
11:06 9 17 mph 1009.2mb 69f
11:00 8 14 mph 1009.3mb 69f
10:36 8 13 mph 1009.2mb 69f
10:30 11 17 mph 1009.3mb 69f
10:24 11 17 mph 1009.3mb 70f
10:18 9 21 mph 1009.3mb 70f
10:12 14 20 mph 1009.3mb 71f
10:06 11 17 mph 1009.3mb 71f
10:00 10 22 mph 1009.3mb 71f
9:36 10 17 mph 1009.2mb 71f
9:30 8 14 mph 1009.1mb 71f
9:24 9 15 mph 1009mb 71f
9:18 7 17 mph 1008.9mb 73f
9:12 10 16 mph 1008.8mb 72f
9:06 7 16 mph 1008.9mb 71f
9:00 11 20 mph 1008.8mb 73f
8:36 8 15 mph 1008.6mb 72f
8:30 7 14 mph 1008.6mb 70f
8:24 8 15 mph 1008.5mb 70f
8:18 11 20 mph 1008.4mb 70f
8:12 14 21 mph 1008.3mb 70f
8:06 15 21 mph 1008.5mb 70f
8:00 15 22 mph 1008.5mb 70f
7:36 14 22 mph 1008.2mb 71f
7:30 13 24 mph 1008.2mb 72f
7:24 13 22 mph 1008mb 72f
7:18 15 22 mph 1008.1mb 73f
7:12 13 21 mph 1008mb 74f
7:06 11 23 mph 1008mb 75f
7:00 13 20 mph 1008mb 74f
6:36 14 18 mph 1007.9mb 70f
6:30 16 24 mph 1007.9mb 69f
6:24 13 20 mph 1008mb 69f
6:18 15 24 mph 1008mb 69f
6:12 16 21 mph 1008mb 69f
6:06 11 18 mph 1008.1mb 70f
6:00 11 20 mph 1007.9mb 71f
5:36 14 18 mph 1007.9mb 73f
5:30 16 22 mph 1007.8mb 72f
5:24 14 18 mph 1007.9mb 72f
5:18 11 18 mph 1007.8mb 73f
5:12 7 22 mph 1007.9mb 79f
5:06 14 26 mph 1007.7mb 82f
5:00 16 26 mph 1007.5mb 83f
4:36 15 28 mph 1007.4mb 83f
4:30 13 26 mph 1007.4mb 84f
4:24 10 22 mph 1007.5mb 83f
4:18 21 33 mph 1007.4mb 83f
4:12 11 31 mph 1007.5mb 83f
4:06 13 24 mph 1007.4mb 84f
4:00 10 17 mph 1007.3mb 80f
3:36 14 29 mph 1007.5mb 83f
3:30 15 25 mph 1007.7mb 83f
3:24 11 23 mph 1007.9mb 81f
3:18 8 20 mph 1007.9mb 76f
3:12 15 28 mph 1007.8mb 74f
3:06 14 24 mph 1008mb 72f
3:00 13 20 mph 1008.2mb 74f
2:36 11 15 mph 1008.5mb 72f
2:30 11 16 mph 1008.6mb 73f
2:24 11 15 mph 1008.5mb 70f
2:18 13 17 mph 1008.6mb 67f
2:12 14 15 mph 1008.6mb 67f
2:06 9 16 mph 1008.6mb 69f
2:00 14 20 mph 1008.7mb 64f
1:36 13 16 mph 1008.9mb 71f
1:30 15 18 mph 1009mb 65f
1:24 15 21 mph 1009.1mb 68f
1:18 14 17 mph 1009.1mb 72f
1:12 14 17 mph 1009.3mb 67f
1:06 9 14 mph 1009.4mb 71f
1:00 15 17 mph 1009.5mb 66f
12:36 14 17 mph 1010mb 66f
12:30 15 20 mph 1010.2mb 64f
12:24 3 11 mph 1010.2mb 67f
12:18 3 6 mph 1010.2mb 67f
12:12 2 6 mph 1010.2mb 69f
12:06 3 8 mph 1010.4mb 65f
12:00 3 6 mph 1010.4mb 69f
11:36 6 7 mph 1010.6mb 63f
11:30 2 6 mph 1010.6mb 64f
11:24 5 6 mph 1010.7mb 64f
11:18 2 9 mph 1010.7mb 66f
11:12 3 9 mph 1010.6mb 65f
11:06 5 8 mph 1010.5mb 65f
11:00 5 9 mph 1010.3mb 64f
10:36 2 5 mph 1010.4mb 62f
10:30  -  6 mph 1010.5mb 62f
10:24 7 9 mph 1010.6mb 59f
10:18 5 7 mph 1010.6mb 63f
10:12 3 7 mph 1010.8mb 57f
10:06 3 6 mph 1010.7mb 58f
10:00 3 6 mph 1010.7mb 57f
9:36 5 6 mph 1010.6mb 57f
9:30 2 5 mph 1010.6mb 58f
9:24 3 6 mph 1010.7mb 58f
9:18 3 5 mph 1010.6mb 58f
9:12 2 6 mph 1010.6mb 57f
9:06 2 3 mph 1010.7mb 58f
9:00 3 5 mph 1010.5mb 58f
8:36 2 5 mph 1010.6mb 57f
8:30 3 5 mph 1010.6mb 57f
8:24 2 3 mph 1010.7mb 57f
8:18 3 6 mph 1010.6mb 56f
8:12 3 6 mph 1010.5mb 56f
8:06 5 7 mph 1010.6mb 56f
8:00 6 7 mph 1010.6mb 56f
7:36 1 5 mph 1010.3mb 61f
7:30  -  3 mph 1010.2mb 60f
7:24 3 5 mph 1010.3mb 60f
7:18 3 5 mph 1010.3mb 59f
7:12 3 6 mph 1010.1mb 60f
7:06 1 6 mph 1010.1mb 59f
7:00 5 6 mph 1010mb 59f
6:36 2 8 mph 1009.6mb 60f
6:30 7 13 mph 1009.5mb 60f
6:24 7 13 mph 1009.5mb 60f
6:18 9 13 mph 1009.6mb 60f
6:12 10 18 mph 1009.6mb 60f
6:06 9 21 mph 1009.6mb 60f
6:00 11 20 mph 1009.4mb 59f
5:36 13 21 mph 1009.4mb 59f
5:30 15 20 mph 1009.3mb 59f
5:24 14 21 mph 1009.3mb 59f
5:18 13 20 mph 1009mb 60f
5:12 14 21 mph 1009.1mb 60f
5:06 11 17 mph 1009.1mb 60f
5:00 13 18 mph 1008.9mb 60f
4:36 10 17 mph 1009.1mb 60f
4:30 8 14 mph 1009mb 60f
4:24 7 11 mph 1009.2mb 60f
4:18 6 9 mph 1009.3mb 60f
4:12 8 14 mph 1009.3mb 60f
4:06 9 14 mph 1009.2mb 60f
4:00 14 22 mph 1009.3mb 60f
3:36 9 15 mph 1009.5mb 60f
3:30 11 17 mph 1009.5mb 61f
3:24 10 17 mph 1009.4mb 61f
3:18 13 18 mph 1009.3mb 61f
3:12 11 21 mph 1009mb 61f
3:06 11 20 mph 1009.3mb 61f
3:00 9 16 mph 1009.6mb 62f
2:36 7 15 mph 1009.7mb 62f
2:30 10 21 mph 1009.7mb 62f
2:24 10 17 mph 1009.7mb 62f
2:18 7 11 mph 1009.8mb 62f
2:12 7 11 mph 1009.8mb 62f
2:06 6 11 mph 1010mb 62f
2:00 6 8 mph 1010.2mb 61f
1:36 9 14 mph 1010.3mb 60f
1:30 8 13 mph 1010.2mb 60f
1:24 9 16 mph 1010.3mb 60f
1:18 11 20 mph 1010.3mb 61f
1:12 13 24 mph 1010.2mb 61f
1:06 13 24 mph 1010.2mb 61f
1:00 10 17 mph 1010.1mb 61f
12:36 9 17 mph 1010.4mb 61f
12:30 13 20 mph 1010.3mb 61f
12:24 9 14 mph 1010.3mb 61f
12:18 7 15 mph 1010.3mb 61f
12:12 13 21 mph 1010.2mb 60f
12:06 15 22 mph 1010.3mb 60f
12:00 2 6 mph 1010.3mb 61f
mer. 04/26 11:36 13 22 mph 1010mb 62f
11:30 14 21 mph 1009.9mb 62f
11:24 14 25 mph 1009.9mb 62f
11:18 17 26 mph 1009.6mb 62f
11:12 16 28 mph 1009.9mb 62f
11:06 15 23 mph 1010mb 62f
11:00 17 26 mph 1010mb 63f
10:36 15 23 mph 1010.3mb 63f
10:30 14 25 mph 1010.3mb 64f
10:24 16 24 mph 1010.3mb 63f
10:18 16 22 mph 1010.2mb 64f
10:12 15 25 mph 1010.3mb 64f
10:06 16 26 mph 1010.3mb 65f
10:00 14 22 mph 1010.2mb 66f
9:36 14 22 mph 1010.2mb 65f
9:30 14 22 mph 1010.2mb 65f
9:24 14 23 mph 1010.3mb 65f
9:18 14 25 mph 1010.3mb 65f
9:12 17 26 mph 1010.3mb 66f
9:06 14 21 mph 1010.2mb 67f
9:00 10 16 mph 1010.3mb 67f
8:36 8 20 mph 1009.8mb 70f
8:30 9 18 mph 1009.8mb 70f
8:24 10 18 mph 1009.8mb 70f
8:18 11 20 mph 1009.9mb 70f
8:12 14 22 mph 1009.9mb 69f
8:06 14 21 mph 1009.8mb 69f
8:00 14 23 mph 1009.8mb 70f
7:36 16 23 mph 1009.5mb 71f
7:30 14 22 mph 1009.5mb 72f
7:24 16 24 mph 1009.4mb 72f
7:18 15 25 mph 1009.5mb 73f
7:12 11 17 mph 1009.5mb 70f
7:06 10 23 mph 1009.4mb 71f
7:00 11 21 mph 1009.3mb 72f
6:36 16 26 mph 1009.2mb 76f
6:30 15 23 mph 1009.2mb 76f
6:24 16 24 mph 1009.3mb 76f
6:18 15 23 mph 1009.3mb 77f
6:12 14 23 mph 1009.4mb 77f
6:06 16 24 mph 1009.4mb 77f
6:00 16 30 mph 1009.4mb 77f
5:36 13 18 mph 1009.4mb 73f
5:30 10 18 mph 1009.5mb 72f
5:24 13 20 mph 1009.4mb 73f
5:18 11 21 mph 1009.5mb 71f
5:12 14 18 mph 1009.4mb 70f
5:06 14 20 mph 1009.6mb 71f
5:00 14 21 mph 1009.6mb 71f
4:36 13 20 mph 1009.8mb 69f
4:30 11 22 mph 1009.8mb 68f
4:24 15 22 mph 1009.7mb 67f
4:18 16 21 mph 1009.8mb 67f
4:12 14 21 mph 1010mb 68f
4:06 14 22 mph 1010mb 70f
4:00 11 17 mph 1010mb 73f
3:36 9 17 mph 1010.1mb 75f
3:30 10 17 mph 1010.2mb 74f
3:24 13 20 mph 1010.3mb 74f
3:18 9 22 mph 1010.3mb 74f
3:12 11 22 mph 1010.3mb 74f
3:06 13 21 mph 1010.3mb 75f
3:00 14 18 mph 1010.3mb 75f
2:36 15 22 mph 1010.7mb 71f
2:30 15 25 mph 1010.7mb 67f
2:24 16 22 mph 1010.7mb 67f
2:18 15 24 mph 1010.8mb 68f
2:12 13 26 mph 1010.8mb 72f
2:06 13 20 mph 1010.9mb 72f
2:00 14 25 mph 1010.8mb 72f
1:36 13 21 mph 1011mb 71f
1:30 15 22 mph 1011mb 71f
1:24 10 20 mph 1011.1mb 71f
1:18 11 22 mph 1011.2mb 71f
1:12 13 20 mph 1011.3mb 73f
1:06 9 20 mph 1011.3mb 73f
1:00 10 17 mph 1011.2mb 74f
12:36 7 15 mph 1011.6mb 75f
12:30 10 17 mph 1011.7mb 75f
12:24 8 15 mph 1011.8mb 75f
12:18 10 17 mph 1011.9mb 73f
12:12 14 23 mph 1012mb 72f
12:06 14 21 mph 1012mb 72f
12:00 11 18 mph 1012.2mb 67f
11:36 14 17 mph 1012.7mb 60f
11:30 17 21 mph 1012.7mb 60f
11:24 16 21 mph 1012.8mb 64f
11:18 17 20 mph 1012.8mb 62f
11:12 14 21 mph 1012.8mb 66f
11:06 18 23 mph 1012.8mb 63f
11:00 13 20 mph 1012.8mb 71f
10:36 11 13 mph 1012.7mb 64f
10:30 9 13 mph 1012.8mb 69f
10:24 9 14 mph 1012.9mb 72f
10:18 9 11 mph 1013mb 70f
10:12 9 14 mph 1013mb 70f
10:06 6 9 mph 1013mb 66f
10:00 6 14 mph 1013mb 62f
9:36 13 18 mph 1013.1mb 57f
9:30 15 17 mph 1013.1mb 60f
9:24 11 14 mph 1013.1mb 62f
9:18 11 14 mph 1012.9mb 64f
9:12 10 11 mph 1012.9mb 63f
9:06 7 9 mph 1012.9mb 58f
9:00 7 9 mph 1013mb 57f
8:36 6 7 mph 1013.2mb 58f
8:30 3 6 mph 1013.2mb 60f
8:24 8 9 mph 1013.2mb 59f
8:18 6 7 mph 1013.4mb 64f
8:12  -  3 mph 1013.3mb 64f
8:06 3 5 mph 1013.4mb 60f
8:00 3 5 mph 1013.4mb 58f
7:36 5 8 mph 1012.9mb 58f
7:30 6 8 mph 1012.9mb 60f
7:24 8 11 mph 1012.8mb 64f
7:18 8 13 mph 1012.5mb 66f
7:12 7 15 mph 1012.4mb 65f
7:06 9 14 mph 1012.4mb 64f
7:00 7 10 mph 1012.5mb 62f
6:36 7 9 mph 1012.1mb 59f
6:30 11 14 mph 1012mb 59f
6:24 3 7 mph 1011.9mb 63f
6:18 6 7 mph 1011.7mb 67f
6:12 5 7 mph 1011.8mb 65f
6:06 5 9 mph 1011.8mb 67f
6:00 1 5 mph 1012mb 61f
5:36 5
mph
1012.2mb 62f
5:30 2 5 mph 1012.2mb 62f
5:24 3 6 mph 1012.1mb 62f
5:18 3 5 mph 1012mb 62f
5:12 5 7 mph 1012mb 61f
5:06 5
mph
1011.9mb 62f
5:00 5 7 mph 1012mb 60f
4:36 6 8 mph 1011.9mb 66f
4:30 6 8 mph 1011.9mb 62f
4:24 9 13 mph 1012mb 59f
4:18 9 14 mph 1012.2mb 59f
4:12 5 6 mph 1012.2mb 61f
4:06  -  2 mph 1012.2mb 61f
4:00 3 6 mph 1012.2mb 62f
3:36 2 5 mph 1012.2mb 61f
3:30 3 6 mph 1012.2mb 62f
3:24 3 8 mph 1012.2mb 59f
3:18 9 11 mph 1012.2mb 59f
3:12 5 6 mph 1012.3mb 61f
3:06 6 7 mph 1012.4mb 61f
3:00 8 23 mph 1012.2mb 60f
2:36 2 3 mph 1012mb 63f
2:30 6 10 mph 1012mb 64f
2:24 8 10 mph 1012.2mb 60f
2:18 8 9 mph 1012.2mb 60f
2:12 6 8 mph 1012.4mb 63f
2:06 6 8 mph 1012.6mb 62f
2:00 3 7 mph 1012.7mb 68f
1:36 6 10 mph 1013mb 68f
1:30 5 10 mph 1013.1mb 68f
1:24 7 10 mph 1013mb 68f
1:18 5 10 mph 1013mb 68f
1:12 6 9 mph 1013.1mb 67f
1:06 8 13 mph 1013.1mb 67f
1:00 7 10 mph 1013.1mb 66f
12:36 5 9 mph 1013.4mb 63f
12:30 7 11 mph 1013.4mb 64f
12:24 7 11 mph 1013.4mb 64f
12:18 3 10 mph 1013.5mb 64f
12:12 6 9 mph 1013.6mb 63f
12:06 7 9 mph 1013.8mb 63f
12:00 6 7 mph 1013.9mb 62f
mar. 04/25 11:36 8 11 mph 1014mb 62f
11:30 7 11 mph 1014.1mb 62f
11:24 9 13 mph 1014mb 62f
11:18 9 13 mph 1014mb 62f
11:12 9 14 mph 1014.1mb 62f
11:06 8 13 mph 1014.1mb 63f
11:00 7 11 mph 1014mb 63f
10:36 8 13 mph 1014.3mb 62f
10:30 9 13 mph 1014.3mb 62f
10:24 7 10 mph 1014.3mb 62f
10:18 8 13 mph 1014.5mb 63f
10:12 10 15 mph 1014.4mb 63f
10:06 9 14 mph 1014.5mb 62f
10:00 7 11 mph 1014.3mb 62f
9:36 9 14 mph 1014mb 63f
9:30 8 14 mph 1014mb 63f
9:24 7 11 mph 1013.9mb 63f
9:18 5 10 mph 1013.8mb 63f
9:12 6 10 mph 1013.6mb 63f
9:06 8 14 mph 1013.6mb 63f
9:00 8 15 mph 1013.5mb 63f
8:36 11 21 mph 1012.9mb 63f
8:30 14 22 mph 1012.7mb 63f
8:24 11 16 mph 1012.8mb 62f
8:18 14 22 mph 1012.9mb 62f
8:12 13 18 mph 1013mb 62f
8:06 9 15 mph 1012.9mb 63f
8:00 11 23 mph 1012.7mb 62f
7:36 15 23 mph 1012.3mb 63f
7:30 16 28 mph 1012.2mb 63f
7:24 16 23 mph 1012.1mb 63f
7:18 17 25 mph 1012.1mb 63f
7:12 17 29 mph 1012mb 64f
7:06 18 26 mph 1011.9mb 64f
7:00 18 29 mph 1011.9mb 64f
6:36 18 26 mph 1011.8mb 65f
6:30 18 29 mph 1011.8mb 65f
6:24 18 25 mph 1011.8mb 65f
6:18 18 31 mph 1011.9mb 65f
6:12 20 25 mph 1011.7mb 65f
6:06 17 25 mph 1011.6mb 65f
6:00 17 24 mph 1011.6mb 66f
5:36 18 25 mph 1011.6mb 65f
5:30 18 23 mph 1011.5mb 65f
5:24 15 25 mph 1011.5mb 64f
5:18 18 28 mph 1011.5mb 63f
5:12 21 30 mph 1011.5mb 64f
5:06 22 33 mph 1011.5mb 64f
5:00 21 30 mph 1011.3mb 65f
4:36 20 30 mph 1011.3mb 66f
4:30 18 29 mph 1011.2mb 66f
4:24 20 28 mph 1011.2mb 66f
4:18 20 28 mph 1011.4mb 67f
4:12 15 24 mph 1011.4mb 67f
4:06 16 29 mph 1011.3mb 67f
4:00 20 29 mph 1011.3mb 66f
3:36 15 29 mph 1011.8mb 69f
3:30 17 29 mph 1011.8mb 69f
3:24 22 30 mph 1011.8mb 68f
3:18 17 30 mph 1011.9mb 68f
3:12 15 30 mph 1012.1mb 68f
3:06 16 26 mph 1011.9mb 69f
3:00 16 25 mph 1012mb 69f
2:36 16 23 mph 1012mb 67f
2:30 17 24 mph 1012.1mb 66f
2:24 16 23 mph 1012mb 67f
2:18 16 25 mph 1012.1mb 67f
2:12 15 24 mph 1012.2mb 67f
2:06 17 28 mph 1012.1mb 65f
2:00 18 28 mph 1012.3mb 65f
1:36 17 30 mph 1012.5mb 67f
1:30 21 32 mph 1012.7mb 66f
1:24 20 31 mph 1012.6mb 66f
1:18 16 25 mph 1012.7mb 64f
1:12 21 24 mph 1013mb 59f
1:06 18 24 mph 1013.2mb 60f
1:00 20 28 mph 1013.2mb 61f
12:36 16 26 mph 1013.4mb 63f
12:30 18 28 mph 1013.5mb 64f
12:24 17 26 mph 1013.7mb 65f
12:18 16 24 mph 1013.7mb 65f
12:12 16 22 mph 1013.7mb 65f
12:06 17 24 mph 1013.9mb 65f
12:00 16 24 mph 1014mb 64f
11:36 13 23 mph 1014.3mb 66f
11:30 13 21 mph 1014.3mb 66f
11:24 13 20 mph 1014.1mb 66f
11:18 14 18 mph 1014.1mb 66f
11:12 15 20 mph 1014.2mb 67f
11:06 13 18 mph 1014.1mb 68f
11:00 13 20 mph 1014.1mb 68f
10:36 10 16 mph 1013.9mb 67f
10:30 10 16 mph 1013.9mb 67f
10:24 9 15 mph 1013.9mb 67f
10:18 10 16 mph 1013.9mb 67f
10:12 8 15 mph 1013.8mb 67f
10:06 9 15 mph 1013.7mb 66f
10:00 10 17 mph 1013.7mb 66f
9:36 6 13 mph 1013.7mb 66f
9:30 9 15 mph 1013.7mb 65f
9:24 9 15 mph 1013.8mb 65f
9:18 10 14 mph 1013.6mb 65f
9:12 9 11 mph 1013.5mb 65f
9:06 6 10 mph 1013.6mb 64f
9:00 7 10 mph 1013.6mb 63f
8:36 9 13 mph 1013.5mb 63f
8:30 8 13 mph 1013.6mb 63f
8:24 7 11 mph 1013.7mb 63f
8:18 7 10 mph 1013.7mb 63f
8:12 5 7 mph 1013.6mb 62f
8:06 6 10 mph 1013.5mb 62f
8:00 3 8 mph 1013.4mb 62f
7:36 5 7 mph 1013.3mb 61f